Time;durP1;ratioP1;P1;durP2;ratioP2;P2;SDS_P1;SDS_P2;PMS_P1;PMS_P2;Temp;Humidity;BMP_temperature;BMP_pressure;BME280_temperature;BME280_humidity;BME280_pressure;Samples;Min_cycle;Max_cycle;Signal;HPM_P1;HPM_P2
2024/01/14 00:02:16;;;;;;;5.73;4.97;;;;;;;;;;6186171;28;20300;-71
2024/01/14 00:05:20;;;;;;;6.43;5.30;;;;;;;;;;6185221;28;20266;-71
2024/01/14 00:08:24;;;;;;;6.03;5.43;;;;;;;;;;6186016;28;20300;-70
2024/01/14 00:11:28;;;;;;;6.23;5.63;;;;;;;;;;6186088;28;20301;-70
2024/01/14 00:14:34;;;;;;;5.47;4.93;;;;;;;;;;6186645;28;20258;-72
2024/01/14 00:17:38;;;;;;;5.90;5.40;;;;;;;;;;6185898;28;21235;-70
2024/01/14 00:20:42;;;;;;;5.60;5.10;;;;;;;;;;6169299;28;20294;-70
2024/01/14 00:23:46;;;;;;;6.97;5.60;;;;;;;;;;6185871;28;20293;-71
2024/01/14 00:26:50;;;;;;;5.90;5.30;;;;;;;;;;6185962;28;20296;-70
2024/01/14 00:29:57;;;;;;;5.90;5.30;;;;;;;;;;6186432;28;20285;-70
2024/01/14 00:33:02;;;;;;;5.00;4.60;;;;;;;;;;6185971;28;20289;-70
2024/01/14 00:36:06;;;;;;;4.93;4.53;;;;;;;;;;6186979;28;20562;-71
2024/01/14 00:39:11;;;;;;;4.70;4.30;;;;;;;;;;6190113;28;20293;-71
2024/01/14 00:42:15;;;;;;;5.10;4.80;;;;;;;;;;6190346;28;20305;-71
2024/01/14 00:45:20;;;;;;;6.57;4.77;;;;;;;;;;6190888;28;20305;-71
2024/01/14 00:48:24;;;;;;;5.13;4.83;;;;;;;;;;6190182;28;20292;-70
2024/01/14 00:51:28;;;;;;;5.03;4.50;;;;;;;;;;6190602;28;20309;-71
2024/01/14 00:54:33;;;;;;;5.13;4.60;;;;;;;;;;6190695;28;20475;-70
2024/01/14 00:57:37;;;;;;;4.73;4.23;;;;;;;;;;6190165;28;20309;-71
2024/01/14 01:00:42;;;;;;;4.60;4.30;;;;;;;;;;6190916;28;20301;-70
2024/01/14 01:03:46;;;;;;;4.67;4.23;;;;;;;;;;6189943;28;20297;-70
2024/01/14 01:06:50;;;;;;;4.57;4.27;;;;;;;;;;6190308;28;20294;-71
2024/01/14 01:09:56;;;;;;;4.67;4.27;;;;;;;;;;6172256;28;20304;-71
2024/01/14 01:13:00;;;;;;;4.63;4.30;;;;;;;;;;6190116;28;20300;-71
2024/01/14 01:16:06;;;;;;;5.07;4.67;;;;;;;;;;6190476;28;20297;-72
2024/01/14 01:19:10;;;;;;;4.70;4.30;;;;;;;;;;6189441;28;20292;-71
2024/01/14 01:22:14;;;;;;;4.00;3.80;;;;;;;;;;6189645;28;20286;-72
2024/01/14 01:25:18;;;;;;;4.23;4.03;;;;;;;;;;6190002;28;20606;-71
2024/01/14 01:28:22;;;;;;;4.20;4.00;;;;;;;;;;6188800;28;20289;-70
2024/01/14 01:31:27;;;;;;;4.13;3.90;;;;;;;;;;6189460;28;20308;-71
2024/01/14 01:34:44;;;;;;;4.77;4.30;;;;;;;;;;6190194;28;20318;-71
2024/01/14 01:37:48;;;;;;;4.40;4.10;;;;;;;;;;6189379;28;20306;-70
2024/01/14 01:40:52;;;;;;;5.67;4.43;;;;;;;;;;6190259;28;20308;-71
2024/01/14 01:43:56;;;;;;;8.67;5.67;;;;;;;;;;6189438;28;20285;-71
2024/01/14 01:47:02;;;;;;;5.47;5.03;;;;;;;;;;6189035;28;20302;-71
2024/01/14 01:50:06;;;;;;;4.80;4.43;;;;;;;;;;6188559;28;20294;-70
2024/01/14 01:53:11;;;;;;;4.53;4.27;;;;;;;;;;6171725;28;20301;-70
2024/01/14 01:56:15;;;;;;;5.20;4.63;;;;;;;;;;6189122;28;20293;-70
2024/01/14 01:59:19;;;;;;;6.33;5.07;;;;;;;;;;6189543;28;20301;-71
2024/01/14 02:02:24;;;;;;;6.23;4.90;;;;;;;;;;6170448;28;20434;-71
2024/01/14 02:05:30;;;;;;;9.00;5.60;;;;;;;;;;6188881;28;20254;-71
2024/01/14 02:08:34;;;;;;;9.87;6.60;;;;;;;;;;6187710;28;20284;-70
2024/01/14 02:11:38;;;;;;;5.57;5.07;;;;;;;;;;6187812;28;20302;-69
2024/01/14 02:14:42;;;;;;;5.70;5.20;;;;;;;;;;6188201;28;20292;-69
2024/01/14 02:17:47;;;;;;;5.30;4.80;;;;;;;;;;6187692;28;20290;-69
2024/01/14 02:20:51;;;;;;;5.23;4.90;;;;;;;;;;6187726;28;20465;-69
2024/01/14 02:24:01;;;;;;;5.40;4.90;;;;;;;;;;6187610;28;20292;-69
2024/01/14 02:27:07;;;;;;;7.67;5.70;;;;;;;;;;6187692;28;20298;-70
2024/01/14 02:30:12;;;;;;;6.83;5.93;;;;;;;;;;6187750;28;20309;-69
2024/01/14 02:33:17;;;;;;;7.43;5.33;;;;;;;;;;6187392;28;20473;-70
2024/01/14 02:36:21;;;;;;;17.30;7.23;;;;;;;;;;6187487;28;20296;-70
2024/01/14 02:39:25;;;;;;;17.73;7.50;;;;;;;;;;6187431;28;20469;-70
2024/01/14 02:42:30;;;;;;;9.47;5.50;;;;;;;;;;6187262;28;20589;-70
2024/01/14 02:45:35;;;;;;;5.57;4.40;;;;;;;;;;6188099;28;20298;-70
2024/01/14 02:48:38;;;;;;;6.90;5.53;;;;;;;;;;6186917;28;20314;-70
2024/01/14 02:51:45;;;;;;;4.97;4.57;;;;;;;;;;6187318;28;20290;-70
2024/01/14 02:54:49;;;;;;;5.07;4.40;;;;;;;;;;6187447;28;20298;-69
2024/01/14 02:57:55;;;;;;;4.53;4.20;;;;;;;;;;6186995;28;20301;-70
2024/01/14 03:00:58;;;;;;;9.20;5.10;;;;;;;;;;6187227;28;20302;-70
2024/01/14 03:04:02;;;;;;;9.17;5.90;;;;;;;;;;6186549;28;20302;-70
2024/01/14 03:07:06;;;;;;;11.77;6.90;;;;;;;;;;6186903;28;20570;-70
2024/01/14 03:10:10;;;;;;;18.93;8.00;;;;;;;;;;6187318;28;20467;-70
2024/01/14 03:13:16;;;;;;;8.50;5.73;;;;;;;;;;6186889;28;20293;-70
2024/01/14 03:16:21;;;;;;;4.60;4.30;;;;;;;;;;6186582;28;20296;-70
2024/01/14 03:19:25;;;;;;;6.13;4.63;;;;;;;;;;6187124;28;20298;-70
2024/01/14 03:22:29;;;;;;;5.63;4.20;;;;;;;;;;6186609;28;20376;-70
2024/01/14 03:25:33;;;;;;;7.77;4.83;;;;;;;;;;6186269;28;20300;-70
2024/01/14 03:28:39;;;;;;;7.23;5.57;;;;;;;;;;6185910;28;20298;-70
2024/01/14 03:31:43;;;;;;;13.57;5.93;;;;;;;;;;6186340;28;20370;-70
2024/01/14 03:34:47;;;;;;;10.53;5.50;;;;;;;;;;6186733;28;20468;-69
2024/01/14 03:37:51;;;;;;;6.93;4.57;;;;;;;;;;6186041;28;20589;-69
2024/01/14 03:40:55;;;;;;;9.03;4.77;;;;;;;;;;6186579;28;20293;-69
2024/01/14 03:44:00;;;;;;;5.43;4.57;;;;;;;;;;6185806;28;20575;-69
2024/01/14 03:47:04;;;;;;;4.33;3.97;;;;;;;;;;6186143;28;20309;-69
2024/01/14 03:50:08;;;;;;;4.00;3.63;;;;;;;;;;6186547;28;20294;-69
2024/01/14 03:53:12;;;;;;;4.50;4.00;;;;;;;;;;6185740;28;20294;-69
2024/01/14 03:56:16;;;;;;;4.07;3.77;;;;;;;;;;6185878;28;20301;-69
2024/01/14 03:59:21;;;;;;;7.90;4.97;;;;;;;;;;6168149;28;20295;-70
2024/01/14 04:02:25;;;;;;;4.63;4.23;;;;;;;;;;6184899;28;20294;-70
2024/01/14 04:05:29;;;;;;;7.00;4.60;;;;;;;;;;6185081;28;20312;-69
2024/01/14 04:08:33;;;;;;;3.43;3.13;;;;;;;;;;6185250;28;20296;-69
2024/01/14 04:11:37;;;;;;;3.33;3.13;;;;;;;;;;6185378;28;20264;-69
2024/01/14 04:14:42;;;;;;;3.67;3.37;;;;;;;;;;6185637;28;20317;-69
2024/01/14 04:17:46;;;;;;;2.93;2.83;;;;;;;;;;6186494;28;20297;-69
2024/01/14 04:20:50;;;;;;;3.83;3.23;;;;;;;;;;6185433;28;20297;-69
2024/01/14 04:23:54;;;;;;;4.93;3.90;;;;;;;;;;6185397;28;20289;-70
2024/01/14 04:26:58;;;;;;;4.47;3.13;;;;;;;;;;6186238;28;20303;-70
2024/01/14 04:30:03;;;;;;;4.30;3.13;;;;;;;;;;6184755;28;20301;-69
2024/01/14 04:33:07;;;;;;;3.27;3.07;;;;;;;;;;6185271;28;20298;-69
2024/01/14 04:36:11;;;;;;;2.77;2.67;;;;;;;;;;6185732;28;20298;-69
2024/01/14 04:39:15;;;;;;;2.67;2.57;;;;;;;;;;6184979;28;20301;-69
2024/01/14 04:42:19;;;;;;;2.47;2.37;;;;;;;;;;6185950;28;20366;-69
2024/01/14 04:45:24;;;;;;;2.37;2.37;;;;;;;;;;6185172;28;20492;-70
2024/01/14 04:48:28;;;;;;;2.50;2.40;;;;;;;;;;6185029;28;20294;-70
2024/01/14 04:51:32;;;;;;;2.40;2.40;;;;;;;;;;6185464;28;20307;-69
2024/01/14 04:54:36;;;;;;;3.67;2.70;;;;;;;;;;6185060;28;20291;-69
2024/01/14 04:57:40;;;;;;;2.70;2.57;;;;;;;;;;6185532;28;20299;-69
2024/01/14 05:00:45;;;;;;;2.13;2.10;;;;;;;;;;6184983;28;20317;-69
2024/01/14 05:03:49;;;;;;;2.00;1.97;;;;;;;;;;6184889;28;20289;-69
2024/01/14 05:06:53;;;;;;;2.10;2.10;;;;;;;;;;6185238;28;20542;-70
2024/01/14 05:09:58;;;;;;;2.00;1.93;;;;;;;;;;6184669;28;20302;-69
2024/01/14 05:13:02;;;;;;;2.00;1.90;;;;;;;;;;6185573;28;20318;-69
2024/01/14 05:16:07;;;;;;;1.93;1.83;;;;;;;;;;6184542;28;20303;-69
2024/01/14 05:19:11;;;;;;;1.83;1.73;;;;;;;;;;6184855;28;20294;-69
2024/01/14 05:22:15;;;;;;;1.67;1.57;;;;;;;;;;6185358;28;20302;-69
2024/01/14 05:25:20;;;;;;;1.40;1.40;;;;;;;;;;6170697;28;20377;-69
2024/01/14 05:28:24;;;;;;;1.40;1.30;;;;;;;;;;6189320;28;20309;-69
2024/01/14 05:31:29;;;;;;;2.70;1.20;;;;;;;;;;6189260;28;20329;-69
2024/01/14 05:34:33;;;;;;;1.20;1.20;;;;;;;;;;6189297;28;20303;-69
2024/01/14 05:37:37;;;;;;;1.10;1.10;;;;;;;;;;6189695;28;20295;-69
2024/01/14 05:40:41;;;;;;;1.07;1.07;;;;;;;;;;6189183;28;20306;-69
2024/01/14 05:43:45;;;;;;;1.20;1.20;;;;;;;;;;6188963;28;20290;-69
2024/01/14 05:46:50;;;;;;;1.20;1.20;;;;;;;;;;6189203;28;20310;-69
2024/01/14 05:49:54;;;;;;;1.20;1.07;;;;;;;;;;6188929;28;20385;-69
2024/01/14 05:52:58;;;;;;;1.67;1.37;;;;;;;;;;6188984;28;20297;-69
2024/01/14 05:56:03;;;;;;;1.07;1.07;;;;;;;;;;6188348;28;20298;-70
2024/01/14 05:59:06;;;;;;;1.00;1.00;;;;;;;;;;6188684;28;20594;-70
2024/01/14 06:02:12;;;;;;;1.17;1.17;;;;;;;;;;6189232;28;20322;-68
2024/01/14 06:05:16;;;;;;;1.00;1.00;;;;;;;;;;6188438;28;20290;-71
2024/01/14 06:08:26;;;;;;;1.20;1.20;;;;;;;;;;6187812;28;20294;-69
2024/01/14 06:11:30;;;;;;;1.30;1.30;;;;;;;;;;6188122;28;20272;-68
2024/01/14 06:14:34;;;;;;;1.10;1.10;;;;;;;;;;6187660;28;20297;-68
2024/01/14 06:17:39;;;;;;;1.20;1.20;;;;;;;;;;6188054;28;20267;-69
2024/01/14 06:20:43;;;;;;;1.13;1.13;;;;;;;;;;6188189;28;20299;-71
2024/01/14 06:23:49;;;;;;;1.00;1.00;;;;;;;;;;6187970;28;20295;-68
2024/01/14 06:26:56;;;;;;;1.20;1.20;;;;;;;;;;6188522;28;20398;-69
2024/01/14 06:30:01;;;;;;;1.60;1.03;;;;;;;;;;6187730;28;20295;-70
2024/01/14 06:33:07;;;;;;;1.10;1.10;;;;;;;;;;6187871;28;20308;-71
2024/01/14 06:36:11;;;;;;;1.50;1.20;;;;;;;;;;6187552;28;20476;-69
2024/01/14 06:39:15;;;;;;;1.10;1.10;;;;;;;;;;6187296;28;20297;-69
2024/01/14 06:42:20;;;;;;;1.20;1.10;;;;;;;;;;6188203;28;20291;-69
2024/01/14 06:45:24;;;;;;;1.20;1.20;;;;;;;;;;6169546;28;20419;-69
2024/01/14 06:48:29;;;;;;;1.10;1.10;;;;;;;;;;6186967;28;20293;-69
2024/01/14 06:51:34;;;;;;;1.97;1.30;;;;;;;;;;6187511;28;20320;-69
2024/01/14 06:54:39;;;;;;;1.10;1.10;;;;;;;;;;6187052;28;20293;-69
2024/01/14 06:57:43;;;;;;;1.20;1.20;;;;;;;;;;6187198;28;20301;-69
2024/01/14 07:00:47;;;;;;;1.40;1.03;;;;;;;;;;6187082;28;20300;-70
2024/01/14 07:03:53;;;;;;;1.33;1.10;;;;;;;;;;6186797;28;20582;-70
2024/01/14 07:06:57;;;;;;;1.20;1.20;;;;;;;;;;6187558;28;20308;-70
2024/01/14 07:10:01;;;;;;;1.17;1.17;;;;;;;;;;6186922;28;20304;-70
2024/01/14 07:13:05;;;;;;;1.60;1.53;;;;;;;;;;6186569;28;20571;-70
2024/01/14 07:16:08;;;;;;;1.30;1.30;;;;;;;;;;6187180;28;20297;-70
2024/01/14 07:19:14;;;;;;;1.10;1.10;;;;;;;;;;6169519;28;20594;-70
2024/01/14 07:22:18;;;;;;;1.70;1.60;;;;;;;;;;6187090;28;20302;-70
2024/01/14 07:25:21;;;;;;;1.30;1.20;;;;;;;;;;6186628;28;20300;-70
2024/01/14 07:28:25;;;;;;;1.27;1.27;;;;;;;;;;6186403;28;20304;-69
2024/01/14 07:31:30;;;;;;;1.40;1.40;;;;;;;;;;6186827;28;20301;-69
2024/01/14 07:34:38;;;;;;;1.20;1.20;;;;;;;;;;6186237;28;20574;-69
2024/01/14 07:37:42;;;;;;;1.77;1.40;;;;;;;;;;6186937;28;20301;-69
2024/01/14 07:40:46;;;;;;;1.13;1.13;;;;;;;;;;6186373;28;20293;-70
2024/01/14 07:43:50;;;;;;;1.20;1.20;;;;;;;;;;6185987;28;20284;-69
2024/01/14 07:46:54;;;;;;;1.13;1.13;;;;;;;;;;6186172;28;20379;-71
2024/01/14 07:49:59;;;;;;;1.30;1.30;;;;;;;;;;6186372;28;20300;-71
2024/01/14 07:53:03;;;;;;;1.40;1.40;;;;;;;;;;6168712;28;20301;-71
2024/01/14 07:56:07;;;;;;;1.27;1.27;;;;;;;;;;6186463;28;20292;-70
2024/01/14 07:59:11;;;;;;;1.20;1.20;;;;;;;;;;6186183;28;20297;-70
2024/01/14 08:02:15;;;;;;;1.20;1.20;;;;;;;;;;6186182;28;20300;-71
2024/01/14 08:05:20;;;;;;;1.40;1.30;;;;;;;;;;6185890;28;20292;-70
2024/01/14 08:08:25;;;;;;;1.20;1.20;;;;;;;;;;6185003;28;20292;-70
2024/01/14 08:11:29;;;;;;;1.40;1.40;;;;;;;;;;6185903;28;20253;-71
2024/01/14 08:14:32;;;;;;;1.37;1.37;;;;;;;;;;6185819;28;20308;-70
2024/01/14 08:17:37;;;;;;;1.33;1.33;;;;;;;;;;6185984;28;20253;-70
2024/01/14 08:20:42;;;;;;;1.60;1.23;;;;;;;;;;6185768;28;20296;-70
2024/01/14 08:23:46;;;;;;;1.40;1.40;;;;;;;;;;6185419;28;20301;-70
2024/01/14 08:26:51;;;;;;;1.20;1.20;;;;;;;;;;6178455;28;20295;-70
2024/01/14 08:29:55;;;;;;;1.20;1.10;;;;;;;;;;6185327;28;20562;-70
2024/01/14 08:32:58;;;;;;;1.10;1.10;;;;;;;;;;6186082;28;20313;-69
2024/01/14 08:36:05;;;;;;;1.10;1.10;;;;;;;;;;6185576;28;20463;-72
2024/01/14 08:39:09;;;;;;;1.47;1.37;;;;;;;;;;6185963;28;20289;-70
2024/01/14 08:42:13;;;;;;;1.10;1.10;;;;;;;;;;6186263;28;20299;-70
2024/01/14 08:45:17;;;;;;;1.30;1.20;;;;;;;;;;6185869;28;20298;-70
2024/01/14 08:48:21;;;;;;;1.20;1.10;;;;;;;;;;6185616;28;20305;-70
2024/01/14 08:51:27;;;;;;;1.00;1.00;;;;;;;;;;6185908;28;20290;-71
2024/01/14 08:54:31;;;;;;;1.23;1.10;;;;;;;;;;6185432;28;20320;-69
2024/01/14 08:57:35;;;;;;;1.10;1.10;;;;;;;;;;6169216;28;20530;-68
2024/01/14 09:00:39;;;;;;;1.27;1.27;;;;;;;;;;6190388;28;20296;-69
2024/01/14 09:03:43;;;;;;;1.30;1.30;;;;;;;;;;6189896;28;20306;-69
2024/01/14 09:06:49;;;;;;;1.47;1.30;;;;;;;;;;6190234;28;20288;-71
2024/01/14 09:09:53;;;;;;;1.80;1.30;;;;;;;;;;6167620;28;20333;-70
2024/01/14 09:12:57;;;;;;;1.10;1.10;;;;;;;;;;6189734;28;20297;-69
2024/01/14 09:16:01;;;;;;;1.33;1.33;;;;;;;;;;6189096;28;20297;-70
2024/01/14 09:19:05;;;;;;;1.10;1.10;;;;;;;;;;6164363;28;20242;-69
2024/01/14 09:22:10;;;;;;;1.20;1.20;;;;;;;;;;6162552;28;20244;-74
2024/01/14 09:25:15;;;;;;;1.30;1.30;;;;;;;;;;6180744;28;20289;-70
2024/01/14 09:28:19;;;;;;;1.10;1.10;;;;;;;;;;6193372;28;20292;-69
2024/01/14 09:31:22;;;;;;;1.40;1.40;;;;;;;;;;6188280;28;20284;-69
2024/01/14 09:34:26;;;;;;;1.20;1.20;;;;;;;;;;6189320;28;20302;-69
2024/01/14 09:37:32;;;;;;;1.37;1.30;;;;;;;;;;6189383;28;20289;-70
2024/01/14 09:44:16;;;;;;;1.70;1.60;;;;;;;;;;6212250;23;20288;-70
2024/01/14 09:47:21;;;;;;;1.30;1.30;;;;;;;;;;6188474;28;20286;-69
2024/01/14 09:50:25;;;;;;;1.40;1.27;;;;;;;;;;6188339;28;20598;-69
2024/01/14 09:53:32;;;;;;;1.60;1.50;;;;;;;;;;6164975;28;20294;-69
2024/01/14 09:56:36;;;;;;;1.30;1.30;;;;;;;;;;6165056;28;20255;-69
2024/01/14 09:59:43;;;;;;;1.30;1.30;;;;;;;;;;6182830;28;20318;-72
2024/01/14 10:02:47;;;;;;;1.40;1.40;;;;;;;;;;6188979;28;20428;-70
2024/01/14 10:05:51;;;;;;;1.30;1.30;;;;;;;;;;6188689;28;20293;-70
2024/01/14 10:08:57;;;;;;;1.57;1.43;;;;;;;;;;6170255;28;20581;-71
2024/01/14 10:12:01;;;;;;;1.53;1.20;;;;;;;;;;6189321;28;20305;-70
2024/01/14 10:15:06;;;;;;;1.43;1.10;;;;;;;;;;6469737;23;20233;-70
2024/01/14 10:18:11;;;;;;;1.30;1.30;;;;;;;;;;6132837;29;20294;-70
2024/01/14 10:21:15;;;;;;;1.37;1.37;;;;;;;;;;6138178;29;20330;-71
2024/01/14 10:24:21;;;;;;;1.40;1.40;;;;;;;;;;6137892;29;20303;-72
2024/01/14 10:27:26;;;;;;;1.50;1.50;;;;;;;;;;6123270;29;20494;-71
2024/01/14 10:30:40;;;;;;;1.33;1.33;;;;;;;;;;6140438;29;20579;-71
2024/01/14 10:33:45;;;;;;;1.20;1.20;;;;;;;;;;6137436;29;20303;-70
2024/01/14 10:36:50;;;;;;;1.00;1.00;;;;;;;;;;6140886;29;20301;-72
2024/01/14 10:39:55;;;;;;;1.50;1.23;;;;;;;;;;6140294;29;20300;-70
2024/01/14 10:42:59;;;;;;;1.90;1.30;;;;;;;;;;6140675;29;20307;-71
2024/01/14 10:46:04;;;;;;;1.20;1.20;;;;;;;;;;6139816;29;20295;-69
2024/01/14 10:49:09;;;;;;;1.07;1.07;;;;;;;;;;6136987;29;20298;-71
2024/01/14 10:52:13;;;;;;;1.30;1.30;;;;;;;;;;6140087;29;20307;-69
2024/01/14 10:55:31;;;;;;;1.83;1.37;;;;;;;;;;6139323;29;20388;-69
2024/01/14 10:58:37;;;;;;;1.30;1.30;;;;;;;;;;6122442;29;20303;-69
2024/01/14 11:01:47;;;;;;;1.40;1.40;;;;;;;;;;6098847;29;20376;-69
2024/01/14 11:04:51;;;;;;;1.00;1.00;;;;;;;;;;6115771;29;20485;-70
2024/01/14 11:07:55;;;;;;;1.67;1.57;;;;;;;;;;6116269;29;20295;-70
2024/01/14 11:11:01;;;;;;;1.57;1.47;;;;;;;;;;6115635;29;20312;-70
2024/01/14 11:14:10;;;;;;;1.20;1.20;;;;;;;;;;6115487;29;20307;-70
2024/01/14 11:17:20;;;;;;;1.27;1.20;;;;;;;;;;6115643;29;20315;-70
2024/01/14 11:20:29;;;;;;;1.23;1.23;;;;;;;;;;6114239;29;20297;-69
2024/01/14 11:23:43;;;;;;;1.73;1.27;;;;;;;;;;6117979;29;20295;-70
2024/01/14 11:26:49;;;;;;;1.20;1.20;;;;;;;;;;6115863;29;20291;-68
2024/01/14 11:29:53;;;;;;;1.23;1.13;;;;;;;;;;6115490;29;20299;-69
2024/01/14 11:33:28;;;;;;;1.37;1.23;;;;;;;;;;6098590;29;20310;-69
2024/01/14 11:36:57;;;;;;;1.60;1.33;;;;;;;;;;6115695;29;20309;-70
2024/01/14 11:40:11;;;;;;;2.23;1.23;;;;;;;;;;6115973;29;20314;-71
2024/01/14 11:43:19;;;;;;;1.13;1.13;;;;;;;;;;6114880;29;20299;-70
2024/01/14 11:46:41;;;;;;;1.10;1.10;;;;;;;;;;6115972;29;20305;-76
2024/01/14 11:49:52;;;;;;;1.53;1.43;;;;;;;;;;6115019;29;20342;-73
2024/01/14 11:52:58;;;;;;;1.20;1.20;;;;;;;;;;6115637;29;20296;-71
2024/01/14 11:56:02;;;;;;;1.80;1.80;;;;;;;;;;6097809;29;20300;-70
2024/01/14 11:59:11;;;;;;;1.27;1.27;;;;;;;;;;6115217;29;20295;-71
2024/01/14 12:02:22;;;;;;;1.50;1.50;;;;;;;;;;6096502;29;20283;-71
2024/01/14 12:05:26;;;;;;;1.57;1.40;;;;;;;;;;6114939;29;20311;-69
2024/01/14 12:08:30;;;;;;;1.50;1.40;;;;;;;;;;6114974;29;20482;-69
2024/01/14 12:11:34;;;;;;;1.40;1.40;;;;;;;;;;6115243;29;20248;-71
2024/01/14 12:14:40;;;;;;;1.33;1.33;;;;;;;;;;6115169;29;20308;-73
2024/01/14 12:17:53;;;;;;;1.53;1.40;;;;;;;;;;6120986;29;20295;-71
2024/01/14 12:21:06;;;;;;;2.57;1.30;;;;;;;;;;6138785;29;20302;-71
2024/01/14 12:24:29;;;;;;;1.97;1.23;;;;;;;;;;6137953;29;20439;-72
2024/01/14 12:27:33;;;;;;;1.30;1.30;;;;;;;;;;6138575;29;20279;-69
2024/01/14 12:30:39;;;;;;;1.30;1.30;;;;;;;;;;6138093;29;20298;-71
2024/01/14 12:33:45;;;;;;;1.43;1.33;;;;;;;;;;6140976;29;20294;-70
2024/01/14 12:36:49;;;;;;;1.30;1.30;;;;;;;;;;6142782;29;20295;-69
2024/01/14 12:39:57;;;;;;;1.40;1.40;;;;;;;;;;6142571;29;20300;-69
2024/01/14 12:43:01;;;;;;;1.33;1.27;;;;;;;;;;6143890;29;20470;-71
2024/01/14 12:46:07;;;;;;;1.43;1.43;;;;;;;;;;6117111;29;20305;-71
2024/01/14 12:49:11;;;;;;;1.33;1.33;;;;;;;;;;6142448;29;20307;-71
2024/01/14 12:52:18;;;;;;;1.23;1.23;;;;;;;;;;6142929;29;20298;-71
2024/01/14 12:55:23;;;;;;;1.47;1.47;;;;;;;;;;6124877;29;20591;-72
2024/01/14 12:58:27;;;;;;;1.20;1.20;;;;;;;;;;6142192;29;20409;-72
2024/01/14 13:01:32;;;;;;;1.47;1.47;;;;;;;;;;6142801;29;20327;-71
2024/01/14 13:04:36;;;;;;;1.20;1.20;;;;;;;;;;6142214;29;20298;-69
2024/01/14 13:07:40;;;;;;;1.50;1.40;;;;;;;;;;6142345;29;20291;-69
2024/01/14 13:14:08;;;;;;;1.93;1.20;;;;;;;;;;6134598;29;20296;-68
2024/01/14 13:17:14;;;;;;;1.50;1.50;;;;;;;;;;6461944;23;20243;-67
2024/01/14 13:20:18;;;;;;;1.73;1.73;;;;;;;;;;6228076;23;20253;-69
2024/01/14 13:23:22;;;;;;;1.20;1.20;;;;;;;;;;6223300;23;20250;-68
2024/01/14 13:26:26;;;;;;;1.73;1.60;;;;;;;;;;6167205;28;20273;-71
2024/01/14 13:29:30;;;;;;;1.50;1.50;;;;;;;;;;6165729;28;20298;-68
2024/01/14 13:32:37;;;;;;;1.37;1.20;;;;;;;;;;6166193;28;20255;-69
2024/01/14 13:35:42;;;;;;;1.20;1.20;;;;;;;;;;6165636;28;20294;-70
2024/01/14 13:38:45;;;;;;;1.20;1.20;;;;;;;;;;6159349;28;20301;-68
2024/01/14 13:41:49;;;;;;;1.53;1.53;;;;;;;;;;6175078;28;20392;-70
2024/01/14 13:44:53;;;;;;;1.20;1.20;;;;;;;;;;6164861;28;20581;-70
2024/01/14 13:47:59;;;;;;;1.40;1.40;;;;;;;;;;6166413;28;20479;-70
2024/01/14 13:51:05;;;;;;;1.53;1.53;;;;;;;;;;6165828;28;20303;-72
2024/01/14 13:54:11;;;;;;;1.60;1.60;;;;;;;;;;6166072;28;20291;-72
2024/01/14 13:57:18;;;;;;;1.57;1.50;;;;;;;;;;6166012;28;20298;-68
2024/01/14 14:00:22;;;;;;;1.80;1.70;;;;;;;;;;6165640;28;20290;-70
2024/01/14 14:03:28;;;;;;;1.70;1.60;;;;;;;;;;6165405;28;20290;-70
2024/01/14 14:06:35;;;;;;;1.60;1.60;;;;;;;;;;6165766;28;20298;-70
2024/01/14 14:09:40;;;;;;;1.60;1.60;;;;;;;;;;6147048;28;20305;-69
2024/01/14 14:12:45;;;;;;;1.50;1.50;;;;;;;;;;6141925;28;20306;-69
2024/01/14 14:15:49;;;;;;;2.00;1.90;;;;;;;;;;6141123;28;20315;-70
2024/01/14 14:18:55;;;;;;;1.83;1.83;;;;;;;;;;6141227;28;20298;-70
2024/01/14 14:21:59;;;;;;;1.67;1.67;;;;;;;;;;6140442;29;20469;-72
2024/01/14 14:25:06;;;;;;;1.70;1.70;;;;;;;;;;6140969;28;20310;-71
2024/01/14 14:28:10;;;;;;;1.40;1.40;;;;;;;;;;6141220;28;20299;-71
2024/01/14 14:31:14;;;;;;;1.90;1.80;;;;;;;;;;6141251;28;20606;-69
2024/01/14 14:34:23;;;;;;;1.83;1.73;;;;;;;;;;6164794;28;20323;-70
2024/01/14 14:37:28;;;;;;;1.60;1.60;;;;;;;;;;6164986;28;20298;-69
2024/01/14 14:40:32;;;;;;;1.63;1.63;;;;;;;;;;6164441;28;20298;-69
2024/01/14 14:43:37;;;;;;;2.10;1.60;;;;;;;;;;6162867;28;20468;-69
2024/01/14 14:46:41;;;;;;;1.67;1.60;;;;;;;;;;6163288;28;20522;-69
2024/01/14 14:49:46;;;;;;;1.83;1.83;;;;;;;;;;6164365;28;20302;-68
2024/01/14 14:52:50;;;;;;;1.67;1.60;;;;;;;;;;6164995;28;20294;-69
2024/01/14 14:55:54;;;;;;;1.47;1.47;;;;;;;;;;6164320;28;20308;-70
2024/01/14 14:58:58;;;;;;;1.73;1.60;;;;;;;;;;6162716;28;20297;-70
2024/01/14 15:02:04;;;;;;;1.73;1.73;;;;;;;;;;6164731;28;20255;-69
2024/01/14 15:05:09;;;;;;;1.80;1.80;;;;;;;;;;6163928;28;20316;-71
2024/01/14 15:08:14;;;;;;;1.90;1.90;;;;;;;;;;6164044;28;20310;-69
2024/01/14 15:11:19;;;;;;;2.13;1.80;;;;;;;;;;6164666;28;20306;-68
2024/01/14 15:14:34;;;;;;;3.30;2.07;;;;;;;;;;6163255;28;20457;-68
2024/01/14 15:17:38;;;;;;;1.60;1.60;;;;;;;;;;6164279;28;20297;-69
2024/01/14 15:20:43;;;;;;;1.67;1.60;;;;;;;;;;6163870;28;20295;-68
2024/01/14 15:23:47;;;;;;;1.60;1.60;;;;;;;;;;6163482;28;20301;-71
2024/01/14 15:26:51;;;;;;;1.50;1.50;;;;;;;;;;6164150;28;20293;-70
2024/01/14 15:29:56;;;;;;;1.67;1.57;;;;;;;;;;6163887;28;20294;-70
2024/01/14 15:33:00;;;;;;;1.70;1.60;;;;;;;;;;6163969;28;20309;-70
2024/01/14 15:36:06;;;;;;;1.80;1.40;;;;;;;;;;6163411;28;20597;-72
2024/01/14 15:39:12;;;;;;;1.40;1.40;;;;;;;;;;6163699;28;20306;-70
2024/01/14 15:42:18;;;;;;;1.50;1.50;;;;;;;;;;6163749;28;20314;-69
2024/01/14 15:45:22;;;;;;;1.20;1.20;;;;;;;;;;6163372;28;20292;-70
2024/01/14 15:48:26;;;;;;;2.10;1.40;;;;;;;;;;6162805;28;20288;-71
2024/01/14 15:51:31;;;;;;;1.37;1.37;;;;;;;;;;6163461;28;20306;-71
2024/01/14 15:54:35;;;;;;;1.20;1.20;;;;;;;;;;6163041;28;20324;-71
2024/01/14 15:57:39;;;;;;;1.57;1.47;;;;;;;;;;6163084;28;20311;-71
2024/01/14 16:00:43;;;;;;;1.20;1.20;;;;;;;;;;6162837;28;20300;-70
2024/01/14 16:04:07;;;;;;;1.33;1.33;;;;;;;;;;6162647;28;20298;-70
2024/01/14 16:07:14;;;;;;;2.83;1.33;;;;;;;;;;6161063;28;20311;-70
2024/01/14 16:10:18;;;;;;;1.30;1.30;;;;;;;;;;6163089;28;20307;-71
2024/01/14 16:13:22;;;;;;;9.77;2.80;;;;;;;;;;6160544;28;20598;-72
2024/01/14 16:16:26;;;;;;;1.40;1.40;;;;;;;;;;6163455;28;20301;-70
2024/01/14 16:19:30;;;;;;;1.30;1.30;;;;;;;;;;6162910;28;20321;-71
2024/01/14 16:22:36;;;;;;;1.40;1.30;;;;;;;;;;6163275;28;20479;-70
2024/01/14 16:25:39;;;;;;;1.37;1.37;;;;;;;;;;6162215;28;20312;-70
2024/01/14 16:28:43;;;;;;;3.13;1.53;;;;;;;;;;6161314;28;20293;-70
2024/01/14 16:31:48;;;;;;;1.47;1.47;;;;;;;;;;6163229;28;20286;-70
2024/01/14 16:34:53;;;;;;;1.30;1.30;;;;;;;;;;6162773;28;20308;-69
2024/01/14 16:37:59;;;;;;;1.30;1.27;;;;;;;;;;6162635;28;20303;-70
2024/01/14 16:41:03;;;;;;;1.27;1.27;;;;;;;;;;6162830;28;20302;-70
2024/01/14 16:44:10;;;;;;;1.40;1.40;;;;;;;;;;6162554;28;20294;-69
2024/01/14 16:47:14;;;;;;;1.30;1.30;;;;;;;;;;6163045;28;20294;-72
2024/01/14 16:50:19;;;;;;;1.30;1.30;;;;;;;;;;6162485;28;20451;-70
2024/01/14 16:53:24;;;;;;;2.20;1.57;;;;;;;;;;6161660;28;20270;-71
2024/01/14 16:56:28;;;;;;;1.60;1.50;;;;;;;;;;6162716;28;20244;-71
2024/01/14 16:59:33;;;;;;;1.50;1.20;;;;;;;;;;6161706;28;20315;-70
2024/01/14 17:02:37;;;;;;;1.50;1.50;;;;;;;;;;6162644;28;20241;-70
2024/01/14 17:05:41;;;;;;;1.30;1.30;;;;;;;;;;6161885;28;20296;-70
2024/01/14 17:08:48;;;;;;;1.60;1.60;;;;;;;;;;6161935;28;20322;-71
2024/01/14 17:11:53;;;;;;;1.80;1.80;;;;;;;;;;6177077;28;20290;-73
2024/01/14 17:14:57;;;;;;;1.50;1.50;;;;;;;;;;6162343;28;20294;-70
2024/01/14 17:18:05;;;;;;;1.50;1.50;;;;;;;;;;6162688;28;20385;-69
2024/01/14 17:21:09;;;;;;;1.40;1.40;;;;;;;;;;6163750;28;20298;-69
2024/01/14 17:24:15;;;;;;;1.27;1.27;;;;;;;;;;6165182;28;20294;-71
2024/01/14 17:27:19;;;;;;;1.50;1.50;;;;;;;;;;6167413;28;20294;-71
2024/01/14 17:30:23;;;;;;;1.33;1.33;;;;;;;;;;6166052;28;20295;-69
2024/01/14 17:33:27;;;;;;;1.40;1.40;;;;;;;;;;6165432;28;20303;-69
2024/01/14 17:36:31;;;;;;;1.50;1.50;;;;;;;;;;6166589;28;20319;-69
2024/01/14 17:39:37;;;;;;;1.77;1.67;;;;;;;;;;6164480;28;20308;-69
2024/01/14 17:42:41;;;;;;;2.17;1.97;;;;;;;;;;6166248;28;20299;-71
2024/01/14 17:45:45;;;;;;;3.13;2.40;;;;;;;;;;6165652;28;20294;-69
2024/01/14 17:49:09;;;;;;;1.50;1.50;;;;;;;;;;6165845;28;20300;-69
2024/01/14 17:52:13;;;;;;;1.30;1.30;;;;;;;;;;6166327;28;20306;-70
2024/01/14 17:55:18;;;;;;;1.87;1.60;;;;;;;;;;6165978;28;20300;-71
2024/01/14 17:58:22;;;;;;;1.70;1.60;;;;;;;;;;6165649;28;20583;-70
2024/01/14 18:01:26;;;;;;;1.30;1.30;;;;;;;;;;6166297;28;20309;-71
2024/01/14 18:04:33;;;;;;;1.40;1.30;;;;;;;;;;6164142;28;20323;-71
2024/01/14 18:07:37;;;;;;;1.67;1.37;;;;;;;;;;6165900;28;20306;-75
2024/01/14 18:10:44;;;;;;;1.50;1.50;;;;;;;;;;6180275;28;20301;-73
2024/01/14 18:13:48;;;;;;;1.60;1.20;;;;;;;;;;6166108;28;20316;-72
2024/01/14 18:16:52;;;;;;;1.40;1.40;;;;;;;;;;6164262;28;20482;-72
2024/01/14 18:19:56;;;;;;;1.30;1.30;;;;;;;;;;6165544;28;20302;-75
2024/01/14 18:23:01;;;;;;;1.60;1.50;;;;;;;;;;6163687;28;20298;-70
2024/01/14 18:26:16;;;;;;;1.40;1.40;;;;;;;;;;6164698;28;20617;-69
2024/01/14 18:29:20;;;;;;;1.83;1.73;;;;;;;;;;6164643;28;20412;-73
2024/01/14 18:32:27;;;;;;;1.70;1.60;;;;;;;;;;6164890;28;20253;-69
2024/01/14 18:35:31;;;;;;;1.37;1.37;;;;;;;;;;6164521;28;20304;-70
2024/01/14 18:38:35;;;;;;;1.77;1.67;;;;;;;;;;6164325;28;20372;-71